Terminal Aerodrome Forecast
Issued by NWS Albany, NY

Home | Current Version | Previous Version | Text Only | Print | Product List | Glossary On
Versions: 1 2 3 4 5 6 7 8 9 10 11 12
000
FTUS41 KALY 301121
TAFPOU
TAF
KPOU 301121Z 3012/3112 VRB03KT P6SM SCT070
     FM301900 23005KT P6SM VCSH BKN060 BKN120
     FM310200 VRB03KT P6SM BKN120
     FM310900 00000KT 5SM BR SCT120=

USA.gov is the U.S. government's official web portal to all federal, state and local government web resources and services.